Time;durP1;ratioP1;P1;durP2;ratioP2;P2;SDS_P1;SDS_P2;PMS_P1;PMS_P2;Temp;Humidity;BMP_temperature;BMP_pressure;BME280_temperature;BME280_humidity;BME280_pressure;Samples;Min_cycle;Max_cycle;Signal;HPM_P1;HPM_P2
2022/08/04 00:00:20;;;;;;;3.93;3.63;;;26.60;66.60;;;;;;5066780;28;20491;-68
2022/08/04 00:03:09;;;;;;;4.77;4.10;;;26.80;65.90;;;;;;5036490;28;20455;-68
2022/08/04 00:05:52;;;;;;;4.63;4.23;;;26.90;65.50;;;;;;5070719;28;20532;-68
2022/08/04 00:08:30;;;;;;;5.03;4.23;;;26.90;65.40;;;;;;5085365;28;20540;-68
2022/08/04 00:11:00;;;;;;;3.33;3.13;;;26.90;65.30;;;;;;5074778;28;20445;-68
2022/08/04 00:13:33;;;;;;;4.60;4.17;;;26.70;65.70;;;;;;5081669;28;20471;-69
2022/08/04 00:16:08;;;;;;;4.50;4.10;;;26.40;66.10;;;;;;5069594;28;20530;-68
2022/08/04 00:18:40;;;;;;;4.43;3.60;;;26.30;66.40;;;;;;5080827;28;20455;-68
2022/08/04 00:21:12;;;;;;;4.40;4.00;;;26.30;66.40;;;;;;5092239;28;20479;-68
2022/08/04 00:23:44;;;;;;;3.53;3.23;;;26.00;67.20;;;;;;5083911;28;20816;-68
2022/08/04 00:26:35;;;;;;;5.10;3.60;;;25.70;67.80;;;;;;5074481;28;20457;-68
2022/08/04 00:29:05;;;;;;;4.37;4.07;;;25.70;67.90;;;;;;5074648;28;20446;-69
2022/08/04 00:31:34;;;;;;;3.50;3.20;;;25.60;68.20;;;;;;5073222;28;20468;-68
2022/08/04 00:34:24;;;;;;;3.93;3.63;;;25.50;68.50;;;;;;5075907;28;20807;-68
2022/08/04 00:36:54;;;;;;;3.20;3.00;;;25.70;67.80;;;;;;5095085;28;20790;-68
2022/08/04 00:39:22;;;;;;;5.03;3.60;;;26.00;67.10;;;;;;5093907;28;20458;-68
2022/08/04 00:42:19;;;;;;;3.37;3.10;;;26.10;66.70;;;;;;5089435;28;20464;-68
2022/08/04 00:45:14;;;;;;;3.70;3.50;;;26.00;66.60;;;;;;5080728;28;20482;-68
2022/08/04 00:47:57;;;;;;;4.17;3.87;;;25.80;67.30;;;;;;5082864;28;20555;-68
2022/08/04 00:50:35;;;;;;;5.00;4.10;;;25.60;67.80;;;;;;5088251;28;20451;-69
2022/08/04 00:53:10;;;;;;;3.60;3.30;;;25.40;68.20;;;;;;5090891;28;20547;-69
2022/08/04 00:56:13;;;;;;;3.60;3.40;;;25.30;68.50;;;;;;5094705;28;20455;-68
2022/08/04 00:59:02;;;;;;;3.70;3.40;;;25.20;69.00;;;;;;5092247;28;20466;-68
2022/08/04 01:01:51;;;;;;;3.83;3.53;;;25.20;68.90;;;;;;5094036;28;20448;-68
2022/08/04 01:04:29;;;;;;;4.37;3.97;;;25.20;69.00;;;;;;5093807;28;20515;-68
2022/08/04 01:07:12;;;;;;;3.70;3.50;;;25.30;68.60;;;;;;5094448;28;20523;-68
2022/08/04 01:09:52;;;;;;;4.30;3.90;;;25.40;68.40;;;;;;5092006;28;20857;-68
2022/08/04 01:12:47;;;;;;;4.00;3.70;;;25.40;68.40;;;;;;5094009;28;20474;-68
2022/08/04 01:15:25;;;;;;;4.30;4.00;;;25.50;68.10;;;;;;5091442;28;21074;-68
2022/08/04 01:18:04;;;;;;;4.30;3.90;;;25.50;67.90;;;;;;5094141;28;20837;-68
2022/08/04 01:20:35;;;;;;;4.23;3.93;;;25.50;67.80;;;;;;5093013;28;20458;-68
2022/08/04 01:23:57;;;;;;;4.23;3.93;;;25.60;67.60;;;;;;5092526;28;20440;-68
2022/08/04 01:26:50;;;;;;;4.10;3.57;;;25.50;67.80;;;;;;5091815;28;20476;-68
2022/08/04 01:29:27;;;;;;;4.67;4.37;;;25.50;67.90;;;;;;5093400;28;20492;-68
2022/08/04 01:32:20;;;;;;;4.40;4.07;;;25.40;68.00;;;;;;5093360;28;20442;-69
2022/08/04 01:34:59;;;;;;;3.77;3.57;;;25.30;68.20;;;;;;5093540;28;20449;-68
2022/08/04 01:37:47;;;;;;;4.20;3.90;;;25.30;68.20;;;;;;5082108;28;20480;-69
2022/08/04 01:40:16;;;;;;;4.90;3.20;;;25.30;68.10;;;;;;5093370;28;20450;-68
2022/08/04 01:42:45;;;;;;;4.00;3.70;;;25.30;68.30;;;;;;5093431;28;20532;-69
2022/08/04 01:45:15;;;;;;;4.30;4.00;;;25.20;68.70;;;;;;5093273;28;20439;-69
2022/08/04 01:47:49;;;;;;;4.60;4.20;;;25.20;68.70;;;;;;5074374;28;20956;-68
2022/08/04 01:50:18;;;;;;;4.93;3.70;;;25.20;68.80;;;;;;5081558;28;20442;-68
2022/08/04 01:52:47;;;;;;;4.07;3.77;;;25.10;69.20;;;;;;5093295;28;20496;-68
2022/08/04 01:55:18;;;;;;;5.00;4.60;;;25.00;69.40;;;;;;5092892;28;20483;-68
2022/08/04 01:57:50;;;;;;;4.57;3.90;;;24.80;69.80;;;;;;5092511;28;20529;-69
2022/08/04 02:00:21;;;;;;;4.30;3.90;;;25.00;69.60;;;;;;5089196;28;20446;-68
2022/08/04 02:02:51;;;;;;;4.80;4.40;;;25.00;69.50;;;;;;5093421;28;20766;-68
2022/08/04 02:05:22;;;;;;;4.17;3.87;;;24.80;69.70;;;;;;5092335;28;20500;-68
2022/08/04 02:08:09;;;;;;;4.33;3.90;;;25.00;69.50;;;;;;5077667;28;20445;-68
2022/08/04 02:10:53;;;;;;;4.10;3.70;;;25.10;69.00;;;;;;5076328;28;20887;-68
2022/08/04 02:13:26;;;;;;;4.30;3.87;;;25.10;68.80;;;;;;5083595;28;20772;-68
2022/08/04 02:16:05;;;;;;;4.33;3.93;;;25.20;68.70;;;;;;5089772;28;20462;-69
2022/08/04 02:18:47;;;;;;;4.50;4.00;;;24.90;69.20;;;;;;5072815;28;20521;-69
2022/08/04 02:21:17;;;;;;;4.33;3.67;;;25.10;68.80;;;;;;5090766;28;20452;-68
2022/08/04 02:23:51;;;;;;;3.50;3.30;;;24.90;69.00;;;;;;5091797;28;20423;-68
2022/08/04 02:26:21;;;;;;;4.90;4.00;;;24.70;69.70;;;;;;5081854;28;21011;-68
2022/08/04 02:29:00;;;;;;;4.10;3.80;;;24.50;70.30;;;;;;5090310;28;20461;-68
2022/08/04 02:31:32;;;;;;;3.40;3.20;;;24.40;70.60;;;;;;5080834;28;20960;-68
2022/08/04 02:34:08;;;;;;;4.13;3.83;;;24.50;69.80;;;;;;5093164;28;20809;-68
2022/08/04 02:36:38;;;;;;;4.00;3.70;;;24.50;70.20;;;;;;5091859;28;20489;-68
2022/08/04 02:39:08;;;;;;;4.43;3.93;;;24.50;70.10;;;;;;5092086;28;20438;-68
2022/08/04 02:41:38;;;;;;;4.87;4.47;;;24.40;70.40;;;;;;5091437;28;20845;-68
2022/08/04 02:44:09;;;;;;;3.70;3.40;;;24.40;70.90;;;;;;5091359;28;20460;-68
2022/08/04 02:46:42;;;;;;;4.00;3.60;;;24.40;71.10;;;;;;5091797;28;20526;-68
2022/08/04 02:49:11;;;;;;;4.17;3.87;;;24.50;71.30;;;;;;5076764;28;20981;-68
2022/08/04 02:51:43;;;;;;;4.10;3.80;;;24.60;71.00;;;;;;5089133;28;20564;-68
2022/08/04 02:54:11;;;;;;;4.03;3.70;;;24.60;71.10;;;;;;5084588;28;20829;-68
2022/08/04 02:56:40;;;;;;;3.47;3.27;;;24.70;70.80;;;;;;5091955;28;20454;-68
2022/08/04 02:59:11;;;;;;;5.83;4.27;;;24.80;69.70;;;;;;5074165;28;20481;-68
2022/08/04 03:01:42;;;;;;;4.17;3.87;;;24.80;69.20;;;;;;5084702;28;20451;-68
2022/08/04 03:04:46;;;;;;;4.00;3.70;;;24.60;69.40;;;;;;5091267;28;20476;-68
2022/08/04 03:07:41;;;;;;;4.40;4.10;;;24.40;69.80;;;;;;5084334;28;20789;-68
2022/08/04 03:10:37;;;;;;;4.40;4.10;;;24.20;70.40;;;;;;5088304;28;20465;-68
2022/08/04 03:13:37;;;;;;;4.37;4.07;;;24.10;70.60;;;;;;5072181;28;20419;-68
2022/08/04 03:16:43;;;;;;;4.77;4.17;;;24.00;70.70;;;;;;5087977;28;21007;-68
2022/08/04 03:19:58;;;;;;;5.27;4.20;;;24.20;70.10;;;;;;5054369;28;20520;-68
2022/08/04 03:22:57;;;;;;;5.10;4.70;;;24.10;70.40;;;;;;5087651;28;20451;-68
2022/08/04 03:26:06;;;;;;;4.60;4.20;;;24.10;70.40;;;;;;5095265;28;20499;-68
2022/08/04 03:29:17;;;;;;;4.80;4.33;;;24.30;70.10;;;;;;5095687;28;20452;-68
2022/08/04 03:32:39;;;;;;;5.97;5.57;;;24.10;70.80;;;;;;5095334;28;20815;-71
2022/08/04 03:35:36;;;;;;;4.80;4.40;;;24.00;70.90;;;;;;5085892;28;20468;-68
2022/08/04 03:38:37;;;;;;;4.67;4.37;;;23.90;71.00;;;;;;5092246;28;20515;-68
2022/08/04 03:41:25;;;;;;;5.30;4.80;;;24.00;71.20;;;;;;5084838;28;20879;-68
2022/08/04 03:44:45;;;;;;;4.20;3.97;;;24.00;71.00;;;;;;5079853;28;20458;-69
2022/08/04 03:47:37;;;;;;;4.47;4.17;;;24.00;71.10;;;;;;5086498;28;20457;-69
2022/08/04 03:50:44;;;;;;;4.30;4.00;;;23.90;71.40;;;;;;5095286;28;20942;-68
2022/08/04 03:53:35;;;;;;;3.70;3.17;;;23.80;71.60;;;;;;5038465;28;20494;-68
2022/08/04 03:56:26;;;;;;;5.20;4.20;;;23.90;71.50;;;;;;5092359;28;20469;-68
2022/08/04 03:59:24;;;;;;;4.30;4.00;;;24.00;71.50;;;;;;5084309;28;20535;-68
2022/08/04 04:02:24;;;;;;;4.60;4.20;;;24.10;71.10;;;;;;5085780;28;20496;-68
2022/08/04 04:05:11;;;;;;;4.60;4.30;;;24.20;71.10;;;;;;5096060;28;20521;-68
2022/08/04 04:08:30;;;;;;;4.93;4.50;;;24.20;70.50;;;;;;5095350;28;20535;-68
2022/08/04 04:11:29;;;;;;;5.00;4.63;;;24.20;70.10;;;;;;4966294;28;20558;-68
2022/08/04 04:14:26;;;;;;;4.40;4.10;;;24.10;70.20;;;;;;5072845;28;20485;-68
2022/08/04 04:17:17;;;;;;;5.63;4.73;;;23.90;70.50;;;;;;5089750;28;20856;-68
2022/08/04 04:20:13;;;;;;;4.20;3.90;;;23.90;70.40;;;;;;5083094;28;20471;-68
2022/08/04 04:22:57;;;;;;;5.00;4.50;;;23.90;70.10;;;;;;5095393;28;20458;-68
2022/08/04 04:25:39;;;;;;;4.00;3.80;;;23.90;70.30;;;;;;5091345;28;20451;-68
2022/08/04 04:28:47;;;;;;;4.10;3.80;;;23.90;70.30;;;;;;5074041;28;20980;-68
2022/08/04 04:31:42;;;;;;;4.33;3.93;;;23.70;71.10;;;;;;5078985;28;20502;-68
2022/08/04 04:34:25;;;;;;;4.67;4.23;;;23.70;71.10;;;;;;5106800;28;20483;-68
2022/08/04 04:37:13;;;;;;;5.10;4.70;;;23.60;71.50;;;;;;5094087;28;20495;-68
2022/08/04 04:39:52;;;;;;;4.07;3.73;;;23.80;71.10;;;;;;5093680;28;20526;-68
2022/08/04 04:42:43;;;;;;;5.00;4.60;;;23.80;71.10;;;;;;5075078;28;20507;-68
2022/08/04 04:45:33;;;;;;;5.13;4.47;;;23.80;71.40;;;;;;5094526;28;20454;-69
2022/08/04 04:48:09;;;;;;;5.00;4.70;;;24.00;71.20;;;;;;5059636;28;20545;-68
2022/08/04 04:50:53;;;;;;;6.87;5.17;;;24.10;71.00;;;;;;5089519;28;20993;-68
2022/08/04 04:53:29;;;;;;;4.93;4.53;;;24.10;70.70;;;;;;5081627;28;20954;-68
2022/08/04 04:56:11;;;;;;;5.33;4.87;;;24.10;71.00;;;;;;5093879;28;20449;-68
2022/08/04 04:58:42;;;;;;;4.80;4.50;;;24.10;71.20;;;;;;5083866;28;20550;-68
2022/08/04 05:01:46;;;;;;;5.80;5.27;;;24.10;71.10;;;;;;5084059;28;20942;-69
2022/08/04 05:04:43;;;;;;;6.17;5.67;;;24.20;71.00;;;;;;5090938;28;20976;-68
2022/08/04 05:07:49;;;;;;;5.00;4.50;;;24.10;71.10;;;;;;5091077;28;20445;-68
2022/08/04 05:10:29;;;;;;;5.33;4.80;;;24.10;71.40;;;;;;5089785;28;20520;-68
2022/08/04 05:13:15;;;;;;;6.10;5.50;;;24.30;70.80;;;;;;5091602;28;20531;-68
2022/08/04 05:16:13;;;;;;;5.50;5.10;;;24.40;71.00;;;;;;5084896;28;20458;-69
2022/08/04 05:18:47;;;;;;;5.60;5.10;;;24.40;71.10;;;;;;5087893;28;20559;-68
2022/08/04 05:21:29;;;;;;;3.30;3.10;;;24.40;71.40;;;;;;5090292;28;20516;-68
2022/08/04 05:24:03;;;;;;;3.43;3.23;;;24.50;70.90;;;;;;5084168;28;20511;-68
2022/08/04 05:26:35;;;;;;;3.20;3.00;;;24.80;70.60;;;;;;5091354;28;20462;-68
2022/08/04 05:29:09;;;;;;;2.87;2.70;;;25.10;70.00;;;;;;5092608;28;20543;-68
2022/08/04 05:31:42;;;;;;;4.57;4.17;;;25.40;69.20;;;;;;5088658;28;20484;-68
2022/08/04 05:34:16;;;;;;;7.43;5.17;;;25.60;68.90;;;;;;5087041;28;20549;-68
2022/08/04 05:36:51;;;;;;;5.07;4.57;;;25.60;69.10;;;;;;5090644;28;20471;-68
2022/08/04 05:39:22;;;;;;;5.00;4.50;;;25.60;69.20;;;;;;5090484;28;20529;-68
2022/08/04 05:41:52;;;;;;;3.83;3.53;;;25.50;69.30;;;;;;5092673;28;20479;-68
2022/08/04 05:44:33;;;;;;;2.80;2.60;;;25.60;69.00;;;;;;5090895;28;20458;-68
2022/08/04 05:47:03;;;;;;;4.73;4.03;;;25.70;68.90;;;;;;5090246;28;20466;-68
2022/08/04 05:49:34;;;;;;;3.90;3.30;;;25.90;68.40;;;;;;5091366;28;20480;-69
2022/08/04 05:52:04;;;;;;;3.97;3.57;;;25.90;68.10;;;;;;5091194;28;20485;-68
2022/08/04 05:54:35;;;;;;;3.40;3.20;;;26.00;68.00;;;;;;5084604;28;20516;-68
2022/08/04 05:57:05;;;;;;;3.13;2.93;;;26.20;67.80;;;;;;5091601;28;20506;-68
2022/08/04 05:59:37;;;;;;;3.43;3.23;;;26.40;67.30;;;;;;5089360;28;20523;-68
2022/08/04 06:02:07;;;;;;;3.20;3.00;;;26.60;66.90;;;;;;5086565;28;20520;-68
2022/08/04 06:04:39;;;;;;;3.30;3.00;;;26.70;66.60;;;;;;5089423;28;20562;-68
2022/08/04 06:07:09;;;;;;;5.47;4.97;;;26.90;66.20;;;;;;5090181;28;20520;-68
2022/08/04 06:09:38;;;;;;;3.67;3.17;;;27.00;65.60;;;;;;5088169;28;20954;-68
2022/08/04 06:12:11;;;;;;;2.67;2.57;;;27.00;65.60;;;;;;5091038;28;20440;-69
2022/08/04 06:14:43;;;;;;;2.60;2.50;;;27.10;65.70;;;;;;5089963;28;20922;-68
2022/08/04 06:17:15;;;;;;;3.30;3.03;;;27.20;65.60;;;;;;5089008;28;20457;-69
2022/08/04 06:20:08;;;;;;;3.20;3.00;;;27.30;65.40;;;;;;5086715;28;20559;-69
2022/08/04 06:22:50;;;;;;;3.20;2.90;;;27.40;65.10;;;;;;5090353;28;20838;-69
2022/08/04 06:25:21;;;;;;;2.73;2.57;;;27.50;64.90;;;;;;5087183;28;20485;-68
2022/08/04 06:27:50;;;;;;;3.23;2.93;;;27.60;64.90;;;;;;5089679;28;20502;-68
2022/08/04 06:30:20;;;;;;;3.00;2.80;;;27.70;64.60;;;;;;5090724;28;20822;-68
2022/08/04 06:32:54;;;;;;;2.93;2.53;;;27.70;64.40;;;;;;5090385;28;20453;-68
2022/08/04 06:35:33;;;;;;;3.73;2.93;;;27.80;64.20;;;;;;5086404;28;20524;-68
2022/08/04 06:38:02;;;;;;;3.47;3.20;;;27.80;64.40;;;;;;5086103;28;20459;-68
2022/08/04 06:40:32;;;;;;;3.23;3.00;;;27.90;64.20;;;;;;5091196;28;20506;-69
2022/08/04 06:43:04;;;;;;;3.67;2.90;;;28.00;64.00;;;;;;5090991;28;20452;-69
2022/08/04 06:45:35;;;;;;;3.30;3.10;;;28.00;63.90;;;;;;5076975;28;20866;-69
2022/08/04 06:48:05;;;;;;;2.77;2.57;;;28.00;63.80;;;;;;5083756;28;20537;-71
2022/08/04 06:50:37;;;;;;;5.07;4.60;;;28.10;63.80;;;;;;5085476;28;20487;-69
2022/08/04 06:53:26;;;;;;;6.53;4.97;;;28.00;62.70;;;;;;5087946;28;20493;-70
2022/08/04 06:55:57;;;;;;;6.73;6.20;;;27.90;63.20;;;;;;5086257;28;20460;-69
2022/08/04 06:58:27;;;;;;;3.33;3.13;;;27.80;63.80;;;;;;5073603;28;20454;-68
2022/08/04 07:01:00;;;;;;;3.77;3.47;;;27.80;64.80;;;;;;5087433;28;20900;-69
2022/08/04 07:03:30;;;;;;;4.00;3.80;;;27.80;64.60;;;;;;5093611;28;20451;-72
2022/08/04 07:06:01;;;;;;;6.10;5.70;;;27.80;64.30;;;;;;5084611;28;20488;-69
2022/08/04 07:08:42;;;;;;;5.63;5.23;;;27.70;64.00;;;;;;5082651;28;20929;-70
2022/08/04 07:11:11;;;;;;;3.43;2.97;;;27.60;64.20;;;;;;5086535;28;20500;-70
2022/08/04 07:13:42;;;;;;;6.50;5.07;;;27.60;65.10;;;;;;5086830;28;20934;-69
2022/08/04 07:16:14;;;;;;;3.90;3.50;;;27.70;64.60;;;;;;5083167;28;20449;-69
2022/08/04 07:18:43;;;;;;;3.23;2.90;;;27.70;64.70;;;;;;5087588;28;20445;-68
2022/08/04 07:21:20;;;;;;;5.70;5.07;;;27.80;64.80;;;;;;5080497;28;20473;-68
2022/08/04 07:23:49;;;;;;;5.03;4.63;;;27.70;63.70;;;;;;5087862;28;20464;-69
2022/08/04 07:26:18;;;;;;;3.27;3.07;;;27.70;63.90;;;;;;5082303;28;20456;-76
2022/08/04 07:28:47;;;;;;;3.30;3.00;;;27.80;64.90;;;;;;5082831;28;20866;-77
2022/08/04 07:31:17;;;;;;;4.10;3.27;;;27.80;64.40;;;;;;5091869;28;20461;-78
2022/08/04 07:34:03;;;;;;;5.27;3.13;;;27.90;64.50;;;;;;5085619;28;20449;-77
2022/08/04 07:36:52;;;;;;;3.20;3.00;;;28.00;64.40;;;;;;5087146;28;20456;-77
2022/08/04 07:39:24;;;;;;;4.30;2.97;;;28.10;64.50;;;;;;5074511;28;20462;-78
2022/08/04 07:41:57;;;;;;;5.60;5.10;;;28.20;64.40;;;;;;5092427;28;21304;-78
2022/08/04 07:44:26;;;;;;;4.00;3.33;;;28.30;63.40;;;;;;5092304;28;20451;-77
2022/08/04 07:46:54;;;;;;;3.33;2.90;;;28.30;63.90;;;;;;5091820;28;20448;-77
2022/08/04 07:49:25;;;;;;;3.17;2.87;;;28.30;64.00;;;;;;5091621;28;20471;-77
2022/08/04 07:52:16;;;;;;;2.50;2.40;;;28.40;63.70;;;;;;5079240;28;20565;-78
2022/08/04 07:54:45;;;;;;;2.93;2.77;;;28.50;63.50;;;;;;5084002;28;20453;-78
2022/08/04 07:57:13;;;;;;;3.43;3.10;;;28.50;62.90;;;;;;5091266;28;20506;-77
2022/08/04 07:59:50;;;;;;;3.50;3.20;;;28.50;63.30;;;;;;5091379;28;20506;-78
2022/08/04 08:02:20;;;;;;;4.80;3.10;;;28.60;63.30;;;;;;5092627;28;20937;-77
2022/08/04 08:04:48;;;;;;;3.57;3.27;;;28.60;63.10;;;;;;5082326;28;20518;-77
2022/08/04 08:07:19;;;;;;;4.63;3.20;;;28.70;63.10;;;;;;5095398;28;20510;-77
2022/08/04 08:09:48;;;;;;;3.80;3.07;;;28.70;62.80;;;;;;5092627;28;20573;-77
2022/08/04 08:12:16;;;;;;;2.83;2.63;;;28.70;63.00;;;;;;5095246;28;20474;-77
2022/08/04 08:15:05;;;;;;;5.33;3.80;;;28.70;63.00;;;;;;5091894;28;20546;-77
2022/08/04 08:17:37;;;;;;;3.40;3.20;;;28.70;62.80;;;;;;5089729;28;20450;-70
2022/08/04 08:20:25;;;;;;;4.77;4.30;;;28.80;62.60;;;;;;5091804;28;20508;-70
2022/08/04 08:22:58;;;;;;;3.53;3.33;;;28.90;62.00;;;;;;5090479;28;20548;-69
2022/08/04 08:25:27;;;;;;;4.23;3.90;;;28.90;62.90;;;;;;5090924;28;20501;-70
2022/08/04 08:27:55;;;;;;;4.73;4.43;;;28.80;61.70;;;;;;5093095;28;20480;-70
2022/08/04 08:30:24;;;;;;;7.57;4.27;;;28.70;61.60;;;;;;5091709;28;20456;-69
2022/08/04 08:33:01;;;;;;;4.70;4.40;;;28.70;61.90;;;;;;5093053;28;20448;-69
2022/08/04 08:35:46;;;;;;;4.27;3.97;;;28.70;62.00;;;;;;5091226;28;20445;-69
2022/08/04 08:38:37;;;;;;;3.03;2.77;;;28.80;63.30;;;;;;5092028;28;20926;-69
2022/08/04 08:41:48;;;;;;;4.77;3.50;;;28.80;63.80;;;;;;5093350;28;20484;-69
2022/08/04 08:44:56;;;;;;;4.27;3.97;;;28.80;63.50;;;;;;5090533;28;21034;-70
2022/08/04 08:47:42;;;;;;;2.77;2.57;;;28.90;63.60;;;;;;5042977;28;20465;-69
2022/08/04 08:50:49;;;;;;;4.57;4.27;;;28.90;64.00;;;;;;5089165;28;20461;-68
2022/08/04 08:53:31;;;;;;;3.80;3.60;;;28.90;62.50;;;;;;5090220;28;20955;-70
2022/08/04 08:56:17;;;;;;;3.83;3.53;;;28.90;63.60;;;;;;5093040;28;20545;-68
2022/08/04 08:59:00;;;;;;;7.70;3.40;;;29.00;62.90;;;;;;5092854;28;20476;-69
2022/08/04 09:01:46;;;;;;;3.77;3.47;;;29.00;63.70;;;;;;5090482;28;20534;-69
2022/08/04 09:04:36;;;;;;;4.73;4.37;;;29.10;64.10;;;;;;5091754;28;20437;-70
2022/08/04 09:07:21;;;;;;;4.87;4.47;;;29.10;63.30;;;;;;5089986;28;20467;-69
2022/08/04 09:10:11;;;;;;;4.43;4.03;;;29.10;63.30;;;;;;5089947;28;20448;-69
2022/08/04 09:12:48;;;;;;;4.10;3.70;;;29.10;62.90;;;;;;5090762;28;20963;-69
2022/08/04 09:15:21;;;;;;;5.57;5.17;;;29.10;63.50;;;;;;5090959;28;20465;-69
2022/08/04 09:17:53;;;;;;;3.53;3.33;;;29.20;63.00;;;;;;5090937;28;20443;-69
2022/08/04 09:20:31;;;;;;;4.10;3.80;;;29.20;63.40;;;;;;5092112;28;20532;-69
2022/08/04 09:23:12;;;;;;;4.67;4.37;;;29.20;63.40;;;;;;5092305;28;20494;-69
2022/08/04 09:25:49;;;;;;;4.10;3.70;;;29.20;63.00;;;;;;5088526;28;20576;-70
2022/08/04 09:28:23;;;;;;;5.20;4.80;;;29.20;63.10;;;;;;5091756;28;20467;-70
2022/08/04 09:31:16;;;;;;;4.40;4.10;;;29.20;62.90;;;;;;5091014;28;21352;-69
2022/08/04 09:33:54;;;;;;;4.40;4.10;;;29.30;63.00;;;;;;5090469;28;20990;-69
2022/08/04 09:36:31;;;;;;;4.40;4.10;;;29.30;62.80;;;;;;5090993;28;20454;-68
2022/08/04 09:39:09;;;;;;;5.53;4.97;;;29.30;62.80;;;;;;5089253;28;21438;-67
2022/08/04 09:41:49;;;;;;;5.77;5.17;;;29.30;62.40;;;;;;5091949;28;20522;-68
2022/08/04 09:44:28;;;;;;;4.30;4.00;;;29.30;62.70;;;;;;5090784;28;20460;-69
2022/08/04 09:47:24;;;;;;;4.80;4.50;;;29.30;62.80;;;;;;5083905;28;21316;-69
2022/08/04 09:50:16;;;;;;;4.00;3.70;;;29.40;62.60;;;;;;5091724;28;20451;-68
2022/08/04 09:52:53;;;;;;;3.63;3.33;;;29.40;62.70;;;;;;5087698;28;20470;-68
2022/08/04 09:55:40;;;;;;;3.40;3.20;;;29.40;62.80;;;;;;5091148;28;20759;-68
2022/08/04 09:58:35;;;;;;;4.00;3.60;;;29.40;62.80;;;;;;5091503;28;20445;-70
2022/08/04 10:01:08;;;;;;;5.20;4.80;;;29.50;62.80;;;;;;5079409;28;20475;-68
2022/08/04 10:03:41;;;;;;;6.33;5.73;;;29.50;62.60;;;;;;5091129;28;20857;-67
2022/08/04 10:06:33;;;;;;;4.40;4.10;;;29.40;62.60;;;;;;5089051;28;20513;-67
2022/08/04 10:09:13;;;;;;;6.23;5.83;;;29.50;62.70;;;;;;5091623;28;20504;-67
2022/08/04 10:11:55;;;;;;;5.07;4.77;;;29.50;62.60;;;;;;5091540;28;20827;-67
2022/08/04 10:14:38;;;;;;;4.57;4.27;;;29.50;62.60;;;;;;5089591;28;20463;-67
2022/08/04 10:17:22;;;;;;;4.00;3.70;;;29.50;62.60;;;;;;5090802;28;20490;-67
2022/08/04 10:20:00;;;;;;;4.23;3.87;;;29.60;62.40;;;;;;5088625;28;20458;-68
2022/08/04 10:22:36;;;;;;;5.40;4.90;;;29.60;62.50;;;;;;5092395;28;20488;-68
2022/08/04 10:25:38;;;;;;;5.90;5.30;;;29.60;62.30;;;;;;5087982;28;20440;-68
2022/08/04 10:28:28;;;;;;;4.17;3.90;;;29.40;61.80;;;;;;5088533;28;20559;-68
2022/08/04 10:31:06;;;;;;;4.47;4.17;;;29.40;61.90;;;;;;5091824;28;20487;-68
2022/08/04 10:33:42;;;;;;;5.77;4.70;;;29.50;61.90;;;;;;5090162;28;20476;-68
2022/08/04 10:36:16;;;;;;;7.23;5.93;;;29.50;62.10;;;;;;5081374;28;20950;-68
2022/08/04 10:38:56;;;;;;;5.37;4.90;;;29.50;62.10;;;;;;5090425;28;20458;-68
2022/08/04 10:41:32;;;;;;;4.80;4.50;;;29.50;62.10;;;;;;5091838;28;20523;-68
2022/08/04 10:44:13;;;;;;;5.07;4.67;;;29.40;61.70;;;;;;5093294;28;20446;-68
2022/08/04 10:46:49;;;;;;;4.60;4.30;;;29.50;61.70;;;;;;5092397;28;20444;-68
2022/08/04 10:49:23;;;;;;;5.30;4.90;;;29.60;61.40;;;;;;5082212;28;20444;-68
2022/08/04 10:51:59;;;;;;;5.57;5.17;;;29.50;61.00;;;;;;5087873;28;20506;-68
2022/08/04 10:54:32;;;;;;;5.47;5.07;;;29.50;60.80;;;;;;5082862;28;20466;-70
2022/08/04 10:57:07;;;;;;;5.70;4.77;;;29.60;60.60;;;;;;5088370;28;20830;-71
2022/08/04 10:59:40;;;;;;;9.33;6.03;;;29.60;60.70;;;;;;5091439;28;20500;-70
2022/08/04 11:02:25;;;;;;;5.30;4.27;;;29.60;60.70;;;;;;5081776;28;20801;-71
2022/08/04 11:05:06;;;;;;;5.33;4.83;;;29.60;60.60;;;;;;5086667;28;20829;-71
2022/08/04 11:07:37;;;;;;;4.83;4.43;;;29.60;60.50;;;;;;5089036;28;20463;-71
2022/08/04 11:10:07;;;;;;;4.10;3.57;;;29.60;60.10;;;;;;5087934;28;20457;-70
2022/08/04 11:12:38;;;;;;;6.47;4.00;;;29.60;59.70;;;;;;5084904;28;20514;-71
2022/08/04 11:15:12;;;;;;;4.70;4.40;;;29.70;59.70;;;;;;5086316;28;20557;-70
2022/08/04 11:17:46;;;;;;;4.97;4.57;;;29.70;59.90;;;;;;5083197;28;20457;-71
2022/08/04 11:20:19;;;;;;;4.83;4.43;;;29.70;60.30;;;;;;5088388;28;20514;-71
2022/08/04 11:23:08;;;;;;;4.53;4.00;;;29.70;60.10;;;;;;5086247;28;20484;-71
2022/08/04 11:25:44;;;;;;;4.83;4.53;;;29.70;59.70;;;;;;5089146;28;20509;-75
2022/08/04 11:28:28;;;;;;;4.80;4.23;;;29.80;59.70;;;;;;5089790;28;20961;-76
2022/08/04 11:31:05;;;;;;;6.10;4.57;;;29.80;59.60;;;;;;5090273;28;20451;-74
2022/08/04 11:33:47;;;;;;;4.67;4.10;;;29.90;59.40;;;;;;5089909;28;20490;-74
2022/08/04 11:36:22;;;;;;;4.47;4.27;;;29.90;59.40;;;;;;5086880;28;20500;-74
2022/08/04 11:38:59;;;;;;;4.37;4.07;;;30.00;58.80;;;;;;5088167;28;20514;-74
2022/08/04 11:41:42;;;;;;;4.40;4.10;;;30.00;58.70;;;;;;5089731;28;20448;-74
2022/08/04 11:44:18;;;;;;;5.10;4.67;;;30.00;58.70;;;;;;5093605;28;20464;-73
2022/08/04 11:46:51;;;;;;;4.20;3.80;;;30.10;59.10;;;;;;5091650;28;20488;-73
2022/08/04 11:49:29;;;;;;;4.80;3.90;;;30.10;59.10;;;;;;5092532;28;20453;-75
2022/08/04 11:52:02;;;;;;;3.80;3.60;;;30.10;58.70;;;;;;5093336;28;20597;-74
2022/08/04 11:54:34;;;;;;;3.90;3.60;;;30.20;58.60;;;;;;5094390;28;20470;-74
2022/08/04 11:57:03;;;;;;;4.43;4.13;;;30.20;58.60;;;;;;5091753;28;20453;-75
2022/08/04 11:59:35;;;;;;;4.60;4.07;;;30.20;58.10;;;;;;5093419;28;20543;-75
2022/08/04 12:02:36;;;;;;;4.10;3.80;;;30.20;58.80;;;;;;5095057;28;20475;-75
2022/08/04 12:05:08;;;;;;;3.90;3.70;;;30.20;58.90;;;;;;5070799;28;20488;-73
2022/08/04 12:08:07;;;;;;;4.20;3.90;;;30.20;58.00;;;;;;5093547;28;20544;-69
2022/08/04 12:10:45;;;;;;;3.67;3.47;;;30.30;57.30;;;;;;5088111;28;20544;-69
2022/08/04 12:13:24;;;;;;;4.57;4.27;;;30.30;56.50;;;;;;5092169;28;20469;-69
2022/08/04 12:16:14;;;;;;;3.57;3.37;;;30.30;57.70;;;;;;5095257;28;20457;-69
2022/08/04 12:18:46;;;;;;;4.30;3.90;;;30.30;56.60;;;;;;5092384;28;20544;-75
2022/08/04 12:21:27;;;;;;;3.77;3.43;;;30.20;55.80;;;;;;5093545;28;20461;-68
2022/08/04 12:24:02;;;;;;;3.60;3.30;;;30.30;55.10;;;;;;5089797;28;20519;-68
2022/08/04 12:26:37;;;;;;;3.30;3.10;;;30.50;54.50;;;;;;5093684;28;20499;-69
2022/08/04 12:29:07;;;;;;;3.83;3.53;;;30.60;54.30;;;;;;5093384;28;20449;-69
2022/08/04 12:31:45;;;;;;;5.93;3.50;;;30.70;54.10;;;;;;5093211;28;20453;-69
2022/08/04 12:34:21;;;;;;;3.87;3.60;;;30.70;53.70;;;;;;5091561;28;20494;-71
2022/08/04 12:36:57;;;;;;;3.50;3.30;;;30.90;53.80;;;;;;5091984;28;20457;-69
2022/08/04 12:39:27;;;;;;;3.80;3.20;;;30.90;53.30;;;;;;5092117;28;20489;-69
2022/08/04 12:42:03;;;;;;;3.70;3.50;;;30.90;53.20;;;;;;5093240;28;20514;-69
2022/08/04 12:44:34;;;;;;;3.20;3.00;;;31.00;52.80;;;;;;5093457;28;20452;-68
2022/08/04 12:47:08;;;;;;;3.03;2.83;;;31.00;52.30;;;;;;5093223;28;20448;-68
2022/08/04 12:50:00;;;;;;;3.50;3.20;;;31.10;52.40;;;;;;5093041;28;20456;-68
2022/08/04 12:52:35;;;;;;;3.70;3.40;;;31.10;52.40;;;;;;5087868;28;20472;-69
2022/08/04 12:55:27;;;;;;;3.17;2.87;;;31.10;52.60;;;;;;5092719;28;20786;-77
2022/08/04 12:57:57;;;;;;;5.90;3.80;;;31.20;52.30;;;;;;5092440;28;20538;-75
2022/08/04 13:00:28;;;;;;;3.80;3.60;;;31.30;52.20;;;;;;5093876;28;20453;-74
2022/08/04 13:03:07;;;;;;;2.97;2.67;;;31.30;52.00;;;;;;5090714;28;20492;-73
2022/08/04 13:05:40;;;;;;;3.33;3.13;;;31.40;51.40;;;;;;5093069;28;20487;-76
2022/08/04 13:08:11;;;;;;;8.87;4.17;;;31.40;51.80;;;;;;5093946;28;20445;-78
2022/08/04 13:10:42;;;;;;;3.30;3.10;;;31.40;52.20;;;;;;5094323;28;20454;-77
2022/08/04 13:13:19;;;;;;;3.00;2.80;;;31.40;52.80;;;;;;5089647;28;21020;-76
2022/08/04 13:15:59;;;;;;;3.37;3.17;;;31.40;51.90;;;;;;5094535;28;20453;-79
2022/08/04 13:18:29;;;;;;;3.63;2.97;;;31.50;51.80;;;;;;5090429;28;20469;-79
2022/08/04 13:21:12;;;;;;;3.60;3.30;;;31.50;51.40;;;;;;5091228;28;20535;-80
2022/08/04 13:23:52;;;;;;;4.57;4.23;;;31.60;51.40;;;;;;5089391;28;20464;-78
2022/08/04 13:26:53;;;;;;;4.60;4.00;;;31.60;51.40;;;;;;5094957;28;20464;-79
2022/08/04 13:29:25;;;;;;;3.17;2.97;;;31.60;51.60;;;;;;5096257;28;20542;-81
2022/08/04 13:32:19;;;;;;;2.60;2.47;;;31.60;51.30;;;;;;5093561;28;20479;-81
2022/08/04 13:34:49;;;;;;;2.97;2.80;;;31.70;51.10;;;;;;5087487;28;20449;-79
2022/08/04 13:37:23;;;;;;;2.83;2.50;;;31.70;51.00;;;;;;5091017;28;20450;-78
2022/08/04 13:39:55;;;;;;;2.87;2.67;;;31.80;50.80;;;;;;5083583;28;20444;-79
2022/08/04 13:42:26;;;;;;;2.80;2.70;;;31.80;50.60;;;;;;5092285;28;20521;-79
2022/08/04 13:44:57;;;;;;;2.77;2.50;;;31.90;50.60;;;;;;5093157;28;20518;-78
2022/08/04 13:47:29;;;;;;;3.43;3.20;;;31.90;50.80;;;;;;5091846;28;20487;-81
2022/08/04 13:50:10;;;;;;;3.47;3.23;;;31.90;50.90;;;;;;5090499;28;20492;-74
2022/08/04 13:52:40;;;;;;;3.23;2.80;;;31.90;50.50;;;;;;5091867;28;20485;-75